Time;durP1;ratioP1;P1;durP2;ratioP2;P2;SDS_P1;SDS_P2;PMS_P1;PMS_P2;Temp;Humidity;BMP_temperature;BMP_pressure;BME280_temperature;BME280_humidity;BME280_pressure;Samples;Min_cycle;Max_cycle;Signal;HPM_P1;HPM_P2
2022/07/27 00:01:15;;;;;;;2.58;2.17;;;28.90;55.60;;;;;;6339028;22;20015;-78
2022/07/27 00:03:42;;;;;;;3.47;2.42;;;28.90;55.50;;;;;;6312151;22;20011;-78
2022/07/27 00:06:08;;;;;;;4.50;1.88;;;28.80;55.40;;;;;;6339606;22;20428;-78
2022/07/27 00:08:34;;;;;;;1.88;1.58;;;28.80;55.60;;;;;;6339682;22;19999;-78
2022/07/27 00:11:00;;;;;;;2.20;1.73;;;28.70;55.70;;;;;;6339500;22;19999;-78
2022/07/27 00:13:26;;;;;;;3.25;2.15;;;28.70;55.70;;;;;;6340309;22;19998;-77
2022/07/27 00:15:52;;;;;;;2.28;1.98;;;28.70;55.90;;;;;;6339593;22;20059;-78
2022/07/27 00:18:18;;;;;;;3.03;2.03;;;28.70;55.90;;;;;;6340310;22;20053;-78
2022/07/27 00:20:43;;;;;;;2.90;2.25;;;28.70;56.00;;;;;;6338454;22;20002;-77
2022/07/27 00:23:09;;;;;;;2.22;1.90;;;28.70;56.10;;;;;;6339235;22;19999;-77
2022/07/27 00:25:35;;;;;;;4.07;2.28;;;28.70;56.00;;;;;;6339563;22;20350;-76
2022/07/27 00:28:02;;;;;;;2.20;1.85;;;28.70;55.90;;;;;;6312528;22;19999;-76
2022/07/27 00:30:28;;;;;;;2.38;2.10;;;28.80;56.00;;;;;;6339390;22;20470;-78
2022/07/27 00:32:54;;;;;;;2.42;1.70;;;28.80;56.00;;;;;;6339962;22;19995;-80
2022/07/27 00:35:20;;;;;;;3.42;2.40;;;28.80;55.90;;;;;;6339745;22;20022;-79
2022/07/27 00:37:45;;;;;;;2.47;1.80;;;28.80;55.90;;;;;;6339401;22;20364;-79
2022/07/27 00:40:11;;;;;;;2.13;1.67;;;28.80;55.60;;;;;;6339318;22;20003;-79
2022/07/27 00:42:37;;;;;;;1.73;1.60;;;28.80;55.70;;;;;;6339311;22;20006;-81
2022/07/27 00:45:04;;;;;;;2.75;2.05;;;28.80;55.70;;;;;;6339335;22;20460;-80
2022/07/27 00:47:31;;;;;;;2.78;1.90;;;28.80;55.70;;;;;;6340049;22;20085;-80
2022/07/27 00:49:57;;;;;;;2.17;1.75;;;28.90;55.70;;;;;;6339171;22;19999;-80
2022/07/27 00:52:24;;;;;;;2.40;2.10;;;28.90;55.50;;;;;;6340159;22;20062;-80
2022/07/27 00:54:50;;;;;;;2.33;1.60;;;28.90;55.60;;;;;;6338771;22;19999;-80
2022/07/27 00:57:16;;;;;;;2.70;1.80;;;28.80;55.50;;;;;;6339378;22;20023;-80
2022/07/27 00:59:42;;;;;;;2.50;1.75;;;28.80;55.70;;;;;;6339534;22;19999;-80
2022/07/27 01:02:08;;;;;;;3.70;1.70;;;28.80;55.60;;;;;;6339003;22;20007;-80
2022/07/27 01:04:35;;;;;;;2.40;2.03;;;28.80;55.90;;;;;;6339877;22;20003;-80
2022/07/27 01:07:04;;;;;;;3.05;2.10;;;28.80;55.50;;;;;;6338930;22;19995;-80
2022/07/27 01:12:19;;;;;;;2.72;1.98;;;28.70;55.50;;;;;;6339823;22;20064;-81
2022/07/27 01:14:47;;;;;;;1.90;1.75;;;28.60;55.70;;;;;;6339518;22;19999;-81
2022/07/27 01:17:13;;;;;;;4.47;1.98;;;28.60;55.90;;;;;;6339815;22;20290;-80
2022/07/27 01:19:38;;;;;;;2.97;1.67;;;28.60;55.60;;;;;;6338002;22;20093;-80
2022/07/27 01:22:05;;;;;;;2.70;1.77;;;28.60;55.70;;;;;;6338377;22;20002;-80
2022/07/27 01:24:31;;;;;;;2.65;2.00;;;28.60;55.70;;;;;;6339264;22;19995;-80
2022/07/27 01:26:59;;;;;;;4.90;1.90;;;28.60;55.70;;;;;;6338882;22;20044;-80
2022/07/27 01:29:24;;;;;;;2.35;2.10;;;28.60;55.70;;;;;;6338464;22;19995;-80
2022/07/27 01:31:50;;;;;;;2.20;2.00;;;28.60;55.70;;;;;;6338118;22;20051;-80
2022/07/27 01:34:16;;;;;;;2.28;1.88;;;28.50;55.60;;;;;;6339567;22;20034;-80
2022/07/27 01:36:42;;;;;;;4.05;2.50;;;28.50;55.70;;;;;;6338771;22;20006;-80
2022/07/27 01:39:08;;;;;;;2.25;2.03;;;28.40;55.80;;;;;;6338992;22;20425;-81
2022/07/27 01:41:33;;;;;;;2.70;2.00;;;28.40;55.90;;;;;;6338932;22;19999;-81
2022/07/27 01:43:59;;;;;;;2.00;1.73;;;28.40;56.00;;;;;;6339428;22;20320;-81
2022/07/27 01:46:25;;;;;;;1.98;1.75;;;28.40;56.30;;;;;;6338405;22;19999;-81
2022/07/27 01:48:50;;;;;;;2.85;1.88;;;28.40;56.00;;;;;;6338963;22;20305;-81
2022/07/27 01:51:16;;;;;;;4.10;1.85;;;28.40;56.20;;;;;;6338610;22;20305;-81
2022/07/27 01:53:42;;;;;;;2.10;1.73;;;28.40;57.00;;;;;;6338303;22;20106;-80
2022/07/27 01:56:11;;;;;;;1.85;1.73;;;28.40;57.10;;;;;;6338955;22;20010;-80
2022/07/27 01:58:38;;;;;;;5.32;2.13;;;28.50;57.10;;;;;;6338458;22;20070;-80
2022/07/27 02:01:04;;;;;;;2.40;2.00;;;28.40;56.70;;;;;;6339176;22;20037;-80
2022/07/27 02:03:30;;;;;;;5.82;2.30;;;28.40;56.70;;;;;;6338456;22;19999;-80
2022/07/27 02:05:56;;;;;;;2.15;1.83;;;28.30;56.60;;;;;;6338942;22;20071;-80
2022/07/27 02:08:22;;;;;;;1.70;1.60;;;28.30;56.50;;;;;;6338721;22;19998;-80
2022/07/27 02:13:33;;;;;;;3.10;1.92;;;28.10;56.50;;;;;;6338870;22;20137;-80
2022/07/27 02:15:59;;;;;;;2.70;1.85;;;28.10;56.70;;;;;;6338646;22;20003;-80
2022/07/27 02:18:25;;;;;;;2.25;1.90;;;28.10;56.80;;;;;;6338623;22;20420;-81
2022/07/27 02:20:51;;;;;;;2.65;2.00;;;28.10;56.70;;;;;;6338943;22;20060;-80
2022/07/27 02:23:16;;;;;;;2.85;1.85;;;28.10;56.50;;;;;;6338970;22;20003;-81
2022/07/27 02:25:42;;;;;;;2.53;2.05;;;28.20;56.40;;;;;;6339233;22;20022;-80
2022/07/27 02:28:08;;;;;;;2.58;2.33;;;28.20;56.20;;;;;;6338432;22;19995;-79
2022/07/27 02:30:34;;;;;;;3.25;2.55;;;28.20;56.20;;;;;;6339117;22;20003;-79
2022/07/27 02:33:00;;;;;;;1.67;1.58;;;28.20;56.00;;;;;;6338249;22;20390;-79
2022/07/27 02:35:26;;;;;;;2.00;1.80;;;28.20;55.80;;;;;;6339121;22;20002;-78
2022/07/27 02:37:51;;;;;;;3.83;2.17;;;28.20;55.80;;;;;;6338542;22;20091;-79
2022/07/27 02:40:17;;;;;;;6.55;1.83;;;28.30;55.70;;;;;;6338277;22;19995;-79
2022/07/27 02:42:43;;;;;;;1.90;1.80;;;28.20;55.60;;;;;;6338182;22;20351;-78
2022/07/27 02:45:09;;;;;;;2.17;1.80;;;28.30;55.70;;;;;;6339095;22;20005;-79
2022/07/27 02:47:36;;;;;;;4.60;2.03;;;28.30;55.50;;;;;;6338427;22;20300;-79
2022/07/27 02:50:03;;;;;;;4.55;2.25;;;28.30;55.50;;;;;;6338775;22;20003;-81
2022/07/27 02:52:28;;;;;;;3.13;1.80;;;28.30;55.40;;;;;;6336598;22;20439;-81
2022/07/27 02:54:54;;;;;;;1.83;1.73;;;28.30;55.40;;;;;;6338574;22;19999;-80
2022/07/27 02:57:20;;;;;;;3.13;2.17;;;28.40;55.60;;;;;;6338303;22;20009;-77
2022/07/27 02:59:45;;;;;;;3.25;1.70;;;28.30;55.40;;;;;;6338932;22;20347;-79
2022/07/27 03:02:11;;;;;;;2.42;2.03;;;28.20;55.50;;;;;;6337932;22;20102;-78
2022/07/27 03:04:37;;;;;;;2.67;2.00;;;28.30;55.80;;;;;;6338814;22;20002;-78
2022/07/27 03:07:02;;;;;;;2.85;1.88;;;28.30;55.80;;;;;;6310861;22;20077;-78
2022/07/27 03:09:28;;;;;;;3.42;2.30;;;28.30;55.70;;;;;;6338538;22;20044;-76
2022/07/27 03:11:54;;;;;;;5.07;1.92;;;28.30;55.70;;;;;;6339120;22;20009;-76
2022/07/27 03:14:20;;;;;;;2.38;1.90;;;28.30;55.70;;;;;;6337803;22;20085;-76
2022/07/27 03:16:45;;;;;;;2.58;1.95;;;28.30;55.80;;;;;;6310574;22;20003;-77
2022/07/27 03:19:11;;;;;;;2.20;1.85;;;28.30;55.60;;;;;;6338187;22;20078;-77
2022/07/27 03:21:37;;;;;;;2.28;1.70;;;28.40;55.60;;;;;;6338729;22;20003;-78
2022/07/27 03:24:03;;;;;;;3.15;2.13;;;28.40;55.50;;;;;;6337572;22;20306;-77
2022/07/27 03:26:29;;;;;;;2.30;2.10;;;28.40;55.50;;;;;;6338159;22;20074;-77
2022/07/27 03:28:56;;;;;;;3.72;1.92;;;28.40;55.40;;;;;;6337379;22;20452;-78
2022/07/27 03:31:22;;;;;;;1.65;1.55;;;28.30;55.50;;;;;;6338118;22;19998;-77
2022/07/27 03:33:48;;;;;;;2.13;1.80;;;28.20;55.60;;;;;;6337058;22;20056;-78
2022/07/27 03:36:13;;;;;;;4.30;2.20;;;28.20;55.70;;;;;;6337869;22;20003;-78
2022/07/27 03:38:39;;;;;;;6.57;1.85;;;28.20;56.00;;;;;;6338390;22;20006;-78
2022/07/27 03:41:05;;;;;;;45.70;4.07;;;28.20;56.00;;;;;;6338343;22;20006;-77
2022/07/27 03:43:32;;;;;;;13.13;3.35;;;27.60;57.40;;;;;;6336654;22;20002;-79
2022/07/27 03:45:57;;;;;;;20.38;4.80;;;27.00;60.10;;;;;;6337791;22;19995;-77
2022/07/27 03:48:23;;;;;;;14.95;4.00;;;26.40;61.70;;;;;;6338243;22;20052;-76
2022/07/27 03:50:49;;;;;;;17.48;2.83;;;26.20;61.90;;;;;;6338739;22;20294;-76
2022/07/27 03:53:16;;;;;;;18.90;2.70;;;26.10;61.90;;;;;;6337593;22;20002;-75
2022/07/27 03:55:43;;;;;;;5.57;2.35;;;26.20;61.10;;;;;;6337947;22;20022;-75
2022/07/27 03:58:09;;;;;;;9.15;2.42;;;26.20;60.90;;;;;;6310434;22;19999;-75
2022/07/27 04:00:35;;;;;;;7.18;2.35;;;26.30;61.00;;;;;;6335690;22;20009;-76
2022/07/27 04:03:00;;;;;;;12.85;2.88;;;26.30;60.50;;;;;;6336563;22;20074;-75
2022/07/27 04:05:26;;;;;;;13.70;2.80;;;26.50;59.00;;;;;;6337015;22;19999;-80
2022/07/27 04:08:11;;;;;;;6.13;2.38;;;26.70;58.50;;;;;;6338791;22;19995;-79
2022/07/27 04:10:37;;;;;;;7.50;2.40;;;26.90;58.40;;;;;;6338365;22;19999;-80
2022/07/27 04:13:03;;;;;;;10.75;2.85;;;27.20;58.00;;;;;;6309076;22;20007;-81
2022/07/27 04:15:29;;;;;;;2.67;1.75;;;27.30;57.70;;;;;;6337623;22;20021;-80
2022/07/27 04:17:54;;;;;;;6.93;1.50;;;27.50;57.40;;;;;;6337645;22;20313;-74
2022/07/27 04:20:20;;;;;;;2.58;1.55;;;27.50;56.10;;;;;;6337560;22;20044;-75
2022/07/27 04:22:47;;;;;;;1.67;1.00;;;27.60;56.50;;;;;;6310868;22;20013;-75
2022/07/27 04:25:13;;;;;;;2.13;1.20;;;27.60;56.80;;;;;;6337548;22;19998;-74
2022/07/27 04:27:38;;;;;;;1.67;1.10;;;27.60;57.60;;;;;;6337453;22;20465;-76
2022/07/27 04:30:04;;;;;;;2.95;1.30;;;27.60;57.50;;;;;;6337306;22;20018;-77
2022/07/27 04:32:30;;;;;;;2.30;1.00;;;27.50;57.00;;;;;;6338348;22;20026;-74
2022/07/27 04:34:56;;;;;;;1.98;0.90;;;27.50;57.10;;;;;;6336237;22;19999;-73
2022/07/27 04:37:22;;;;;;;1.42;1.08;;;27.50;57.70;;;;;;6337647;22;20010;-73
2022/07/27 04:39:47;;;;;;;2.75;1.00;;;27.50;58.30;;;;;;6337529;22;20003;-73
2022/07/27 04:42:13;;;;;;;2.03;1.25;;;27.40;57.70;;;;;;6339710;22;20051;-73
2022/07/27 04:44:39;;;;;;;1.83;1.25;;;27.40;58.30;;;;;;6337196;22;20002;-73
2022/07/27 04:47:05;;;;;;;1.73;0.90;;;27.40;58.10;;;;;;6338930;22;19995;-73
2022/07/27 04:49:31;;;;;;;2.92;1.20;;;27.30;54.40;;;;;;6338872;22;19998;-73
2022/07/27 04:51:56;;;;;;;1.90;1.17;;;27.30;53.50;;;;;;6339848;22;20473;-73
2022/07/27 04:54:22;;;;;;;3.53;1.27;;;27.30;51.70;;;;;;6339268;22;20010;-73
2022/07/27 04:56:48;;;;;;;3.72;1.50;;;27.20;55.20;;;;;;6339346;22;20037;-79
2022/07/27 04:59:13;;;;;;;6.55;1.83;;;26.80;56.10;;;;;;6339461;22;20053;-80
2022/07/27 05:01:39;;;;;;;6.65;1.27;;;26.70;59.40;;;;;;6338542;22;20325;-80
2022/07/27 05:04:05;;;;;;;5.43;1.60;;;26.50;59.30;;;;;;6338607;22;20003;-80
2022/07/27 05:06:31;;;;;;;5.38;1.77;;;26.30;61.90;;;;;;6311083;22;20037;-79
2022/07/27 05:08:58;;;;;;;3.00;1.67;;;26.10;63.00;;;;;;6338194;22;20029;-73
2022/07/27 05:11:24;;;;;;;2.42;1.50;;;25.70;63.10;;;;;;6337832;22;20074;-74
2022/07/27 05:13:50;;;;;;;2.70;1.60;;;25.50;62.60;;;;;;6337882;22;20422;-75
2022/07/27 05:16:15;;;;;;;5.10;1.90;;;25.60;63.50;;;;;;6336194;22;20085;-75
2022/07/27 05:18:41;;;;;;;2.80;1.48;;;25.30;63.90;;;;;;6337855;22;20780;-73
2022/07/27 05:21:08;;;;;;;59.40;4.93;;;25.60;64.40;;;;;;6338643;22;20085;-73
2022/07/27 05:23:34;;;;;;;16.27;2.83;;;25.80;65.90;;;;;;6338946;22;20022;-73
2022/07/27 05:26:00;;;;;;;2.75;1.52;;;25.90;66.70;;;;;;6339145;22;20002;-74
2022/07/27 05:28:26;;;;;;;3.63;1.52;;;26.00;67.60;;;;;;6338444;22;20725;-73
2022/07/27 05:30:52;;;;;;;4.13;1.83;;;26.10;67.30;;;;;;6311151;22;20432;-73
2022/07/27 05:33:17;;;;;;;2.17;1.40;;;26.10;67.60;;;;;;6338678;22;19999;-73
2022/07/27 05:35:43;;;;;;;4.38;1.60;;;26.20;67.60;;;;;;6338912;22;20342;-73
2022/07/27 05:38:09;;;;;;;2.10;1.73;;;26.20;67.60;;;;;;6339489;22;19998;-74
2022/07/27 05:40:35;;;;;;;2.53;1.42;;;26.30;66.50;;;;;;6338840;22;19999;-74
2022/07/27 05:43:01;;;;;;;9.00;1.70;;;26.30;66.60;;;;;;6339074;22;20044;-74
2022/07/27 05:45:26;;;;;;;1.58;1.30;;;26.30;64.70;;;;;;6337511;22;20003;-75
2022/07/27 05:47:53;;;;;;;1.85;1.38;;;26.30;65.00;;;;;;6337334;22;20002;-74
2022/07/27 05:50:19;;;;;;;1.42;1.20;;;26.40;64.70;;;;;;6338196;22;19995;-76
2022/07/27 05:52:45;;;;;;;1.50;1.40;;;26.40;63.90;;;;;;6338591;22;19999;-74
2022/07/27 05:55:11;;;;;;;1.80;1.25;;;26.50;64.00;;;;;;6338438;22;20060;-75
2022/07/27 05:57:39;;;;;;;2.05;1.45;;;26.60;64.60;;;;;;6339018;22;20013;-74
2022/07/27 06:00:06;;;;;;;2.03;1.40;;;26.60;64.50;;;;;;6338768;22;20028;-74
2022/07/27 06:02:32;;;;;;;3.55;1.55;;;26.60;63.90;;;;;;6338695;22;20007;-74
2022/07/27 06:04:57;;;;;;;4.47;1.55;;;26.60;62.90;;;;;;6338490;22;20002;-78
2022/07/27 06:10:07;;;;;;;3.25;1.40;;;26.60;62.40;;;;;;6337854;22;20010;-79
2022/07/27 06:12:40;;;;;;;4.53;2.10;;;26.70;63.60;;;;;;6337455;22;19999;-80
2022/07/27 06:15:07;;;;;;;4.82;2.03;;;26.70;63.00;;;;;;6338631;22;20084;-79
2022/07/27 06:17:33;;;;;;;3.85;1.70;;;26.60;62.30;;;;;;6337968;22;20003;-80
2022/07/27 06:19:59;;;;;;;2.33;1.67;;;26.40;62.30;;;;;;6338789;22;20437;-80
2022/07/27 06:22:25;;;;;;;2.72;1.70;;;26.40;63.40;;;;;;6338897;22;20003;-80
2022/07/27 06:24:51;;;;;;;3.75;1.55;;;26.40;63.70;;;;;;6339133;22;20005;-79
2022/07/27 06:27:16;;;;;;;2.65;1.60;;;26.40;63.60;;;;;;6338213;22;20022;-80
2022/07/27 06:29:42;;;;;;;3.15;1.77;;;26.50;64.50;;;;;;6338870;22;20475;-80
2022/07/27 06:32:08;;;;;;;3.97;1.98;;;26.50;65.40;;;;;;6338405;22;20003;-81
2022/07/27 06:34:34;;;;;;;6.05;1.75;;;26.60;65.60;;;;;;6339043;22;20026;-80
2022/07/27 06:36:59;;;;;;;6.45;2.35;;;26.50;67.00;;;;;;6338911;22;20003;-79
2022/07/27 06:39:26;;;;;;;5.32;2.40;;;26.50;67.40;;;;;;6338785;22;20409;-80
2022/07/27 06:41:52;;;;;;;7.30;2.75;;;26.50;70.10;;;;;;6338917;22;20006;-80
2022/07/27 06:44:17;;;;;;;8.23;3.75;;;26.50;71.90;;;;;;6337924;22;19994;-79
2022/07/27 06:46:43;;;;;;;5.55;2.58;;;26.40;73.70;;;;;;6339690;22;19999;-79
2022/07/27 06:49:09;;;;;;;5.35;2.47;;;26.30;75.30;;;;;;6339513;22;19999;-79
2022/07/27 06:51:35;;;;;;;5.63;2.80;;;26.30;76.50;;;;;;6338926;22;19999;-80
2022/07/27 06:54:00;;;;;;;6.82;2.67;;;26.30;77.60;;;;;;6339447;22;19999;-80
2022/07/27 06:56:26;;;;;;;6.65;2.33;;;26.30;78.40;;;;;;6310770;22;20003;-79
2022/07/27 06:58:52;;;;;;;5.55;2.90;;;26.30;78.90;;;;;;6311534;22;20007;-80
2022/07/27 07:01:17;;;;;;;4.20;2.38;;;26.30;79.70;;;;;;6338873;22;20014;-80
2022/07/27 07:03:43;;;;;;;5.10;3.28;;;26.30;80.20;;;;;;6338837;22;20030;-79
2022/07/27 07:06:09;;;;;;;3.83;2.78;;;26.20;80.80;;;;;;6338792;22;20002;-79
2022/07/27 07:08:35;;;;;;;3.28;2.63;;;26.30;80.90;;;;;;6309372;22;20053;-79
2022/07/27 07:11:01;;;;;;;3.97;2.58;;;26.30;81.00;;;;;;6338900;22;20003;-80
2022/07/27 07:13:27;;;;;;;4.20;3.10;;;26.30;80.90;;;;;;6338867;22;19999;-80
2022/07/27 07:15:53;;;;;;;5.03;3.20;;;26.30;81.50;;;;;;6338876;22;20176;-74
2022/07/27 07:18:18;;;;;;;5.65;2.95;;;26.30;81.70;;;;;;6338755;22;20311;-74
2022/07/27 07:20:44;;;;;;;5.30;3.00;;;26.40;82.10;;;;;;6337774;22;20321;-75
2022/07/27 07:23:10;;;;;;;30.38;25.20;;;26.40;82.40;;;;;;6310903;22;20025;-75
2022/07/27 07:25:37;;;;;;;95.57;79.72;;;26.40;82.20;;;;;;6338773;22;20420;-75
2022/07/27 07:28:04;;;;;;;15.73;13.40;;;26.40;82.70;;;;;;6338683;22;20033;-75
2022/07/27 07:30:30;;;;;;;4.38;3.92;;;26.40;83.20;;;;;;6338757;22;20057;-75
2022/07/27 07:32:56;;;;;;;6.05;3.22;;;26.50;83.50;;;;;;6337304;22;20003;-74
2022/07/27 07:35:24;;;;;;;4.05;3.53;;;26.50;84.20;;;;;;6336594;22;20049;-74
2022/07/27 07:37:49;;;;;;;5.43;3.80;;;26.50;84.50;;;;;;6337474;22;20440;-75
2022/07/27 07:40:15;;;;;;;7.38;3.47;;;26.60;85.00;;;;;;6338619;22;20030;-74
2022/07/27 07:42:52;;;;;;;5.30;2.97;;;26.60;85.30;;;;;;6337882;22;20033;-75
2022/07/27 07:45:20;;;;;;;4.80;3.22;;;26.60;84.80;;;;;;6338791;22;20345;-75
2022/07/27 07:47:46;;;;;;;3.85;2.45;;;26.60;83.60;;;;;;6305608;22;20010;-75
2022/07/27 07:50:12;;;;;;;3.47;2.55;;;26.60;82.90;;;;;;6338912;22;20009;-75
2022/07/27 07:52:38;;;;;;;6.88;3.13;;;26.60;83.00;;;;;;6338118;22;20010;-75
2022/07/27 07:55:04;;;;;;;4.72;2.80;;;26.70;83.20;;;;;;6309669;22;20007;-75
2022/07/27 07:57:30;;;;;;;6.97;3.40;;;26.70;83.10;;;;;;6337156;22;20077;-75
2022/07/27 07:59:56;;;;;;;3.58;3.03;;;26.70;82.80;;;;;;6336946;22;20371;-74
2022/07/27 08:02:22;;;;;;;4.45;2.83;;;26.60;83.10;;;;;;6338019;22;20045;-75
2022/07/27 08:04:47;;;;;;;3.72;3.30;;;26.70;83.50;;;;;;6338305;22;20007;-75
2022/07/27 08:07:13;;;;;;;4.05;2.58;;;26.70;83.20;;;;;;6337368;22;20073;-74
2022/07/27 08:09:39;;;;;;;3.72;2.45;;;26.70;82.70;;;;;;6337997;22;19999;-74
2022/07/27 08:12:05;;;;;;;4.22;2.92;;;26.70;82.10;;;;;;6336982;22;20305;-74
2022/07/27 08:14:31;;;;;;;3.38;2.63;;;26.70;81.80;;;;;;6338435;22;20026;-74
2022/07/27 08:16:57;;;;;;;4.00;2.75;;;26.80;81.80;;;;;;6338321;22;20045;-74
2022/07/27 08:19:23;;;;;;;4.13;2.70;;;26.80;80.90;;;;;;6338752;22;20362;-74
2022/07/27 08:21:48;;;;;;;3.55;2.58;;;26.90;81.30;;;;;;6338215;22;20030;-74
2022/07/27 08:24:14;;;;;;;7.35;3.10;;;26.90;81.80;;;;;;6339175;22;19999;-74
2022/07/27 08:26:40;;;;;;;4.05;3.38;;;27.00;82.60;;;;;;6339569;22;20030;-74
2022/07/27 08:29:06;;;;;;;5.53;2.60;;;27.00;81.90;;;;;;6337902;22;20003;-74
2022/07/27 08:31:31;;;;;;;4.90;3.15;;;27.00;82.00;;;;;;6339094;22;20005;-74
2022/07/27 08:33:57;;;;;;;5.38;2.35;;;27.10;82.10;;;;;;6339148;22;20030;-76
2022/07/27 08:36:23;;;;;;;4.30;2.95;;;27.10;81.40;;;;;;6339258;22;20009;-74
2022/07/27 08:38:48;;;;;;;5.28;3.05;;;27.00;80.70;;;;;;6338228;22;19999;-74
2022/07/27 08:41:15;;;;;;;6.50;3.00;;;27.00;81.00;;;;;;6339753;22;20010;-79
2022/07/27 08:43:44;;;;;;;6.28;2.92;;;27.10;80.70;;;;;;6339433;22;20021;-79
2022/07/27 08:46:10;;;;;;;4.75;2.90;;;27.10;80.00;;;;;;6337421;22;19999;-79
2022/07/27 08:48:38;;;;;;;6.15;3.15;;;27.20;80.30;;;;;;6339879;22;20044;-73
2022/07/27 08:51:06;;;;;;;5.22;3.22;;;27.20;78.50;;;;;;6310986;22;20364;-73
2022/07/27 08:53:32;;;;;;;9.57;3.33;;;27.10;78.50;;;;;;6339124;22;20030;-74
2022/07/27 08:55:58;;;;;;;4.65;2.75;;;27.00;77.60;;;;;;6334631;22;20082;-74
2022/07/27 08:58:23;;;;;;;5.13;4.00;;;27.10;78.40;;;;;;6338952;22;20445;-74
2022/07/27 09:00:50;;;;;;;8.23;3.67;;;27.00;76.20;;;;;;6338088;22;20037;-74
2022/07/27 09:03:18;;;;;;;4.90;3.17;;;27.00;76.90;;;;;;6310705;22;20031;-74
2022/07/27 09:05:49;;;;;;;3.28;2.83;;;27.20;77.30;;;;;;6310383;22;20444;-74
2022/07/27 09:08:20;;;;;;;3.22;2.63;;;27.30;76.60;;;;;;6309299;22;20007;-79
2022/07/27 09:10:45;;;;;;;5.60;3.08;;;27.40;76.40;;;;;;6338244;22;20405;-78
2022/07/27 09:13:27;;;;;;;4.72;3.13;;;27.60;76.80;;;;;;6338764;22;19994;-78
2022/07/27 09:16:02;;;;;;;6.65;2.92;;;27.80;78.00;;;;;;6310192;22;20003;-78
2022/07/27 09:18:29;;;;;;;3.38;2.60;;;28.00;76.70;;;;;;6339294;22;19995;-78
2022/07/27 09:21:10;;;;;;;6.25;3.97;;;28.20;76.10;;;;;;6338531;22;19999;-78
2022/07/27 09:23:38;;;;;;;4.50;3.10;;;28.00;69.70;;;;;;6338181;22;19999;-74
2022/07/27 09:26:18;;;;;;;4.95;2.75;;;28.00;71.20;;;;;;6338240;22;19995;-74
2022/07/27 09:28:44;;;;;;;;;;;28.10;71.60;;;;;;6339369;22;20026;-74
2022/07/27 09:31:12;;;;;;;6.28;3.30;;;28.20;72.30;;;;;;6337979;22;19903;-82
2022/07/27 09:33:48;;;;;;;4.70;3.30;;;28.40;72.60;;;;;;6338647;22;20071;-74
2022/07/27 09:36:15;;;;;;;8.48;4.28;;;28.50;70.90;;;;;;6337278;22;20002;-74
2022/07/27 09:39:05;;;;;;;4.07;2.70;;;28.60;68.80;;;;;;6338311;22;20429;-74
2022/07/27 09:41:44;;;;;;;4.32;3.00;;;28.70;69.70;;;;;;6310573;22;20006;-74
2022/07/27 09:44:10;;;;;;;5.70;2.97;;;28.90;69.10;;;;;;6337431;22;20036;-75
2022/07/27 09:46:38;;;;;;;4.55;2.92;;;29.00;69.30;;;;;;6336699;22;20020;-74
2022/07/27 09:49:05;;;;;;;7.68;3.65;;;29.20;69.30;;;;;;6337987;22;19999;-74
2022/07/27 09:51:31;;;;;;;4.78;3.20;;;29.30;66.10;;;;;;6338046;22;20082;-74
2022/07/27 09:54:04;;;;;;;5.43;3.20;;;29.40;66.50;;;;;;6335838;22;20369;-74
2022/07/27 09:56:31;;;;;;;3.63;2.60;;;29.50;65.00;;;;;;6337583;22;20078;-74
2022/07/27 09:58:59;;;;;;;3.60;2.70;;;29.60;66.00;;;;;;6337822;22;20002;-74
2022/07/27 10:01:27;;;;;;;5.43;3.40;;;29.80;66.10;;;;;;6338286;22;20057;-74
2022/07/27 10:03:55;;;;;;;3.25;2.90;;;29.90;60.50;;;;;;6338618;22;19995;-74
2022/07/27 10:06:22;;;;;;;4.38;3.20;;;30.00;62.30;;;;;;6337739;22;19995;-75
2022/07/27 10:08:49;;;;;;;4.45;3.47;;;29.90;60.20;;;;;;6337480;22;20337;-75
2022/07/27 10:11:17;;;;;;;3.63;2.70;;;29.90;60.30;;;;;;6336316;22;20419;-78
2022/07/27 10:13:43;;;;;;;2.30;2.10;;;30.00;61.50;;;;;;6337605;22;20309;-79
2022/07/27 10:16:18;;;;;;;4.47;2.50;;;30.30;62.40;;;;;;6338159;22;20002;-79
2022/07/27 10:18:55;;;;;;;3.67;2.42;;;30.50;62.90;;;;;;6337157;22;20081;-78
2022/07/27 10:21:22;;;;;;;9.82;3.03;;;30.70;60.80;;;;;;6337410;22;20030;-79
2022/07/27 10:23:58;;;;;;;3.47;2.70;;;30.90;61.60;;;;;;6335921;22;19998;-80
2022/07/27 10:26:23;;;;;;;5.30;2.92;;;31.10;61.50;;;;;;6309598;22;20429;-81
2022/07/27 10:28:58;;;;;;;3.10;2.60;;;31.20;58.80;;;;;;6336071;22;20005;-81
2022/07/27 10:31:36;;;;;;;3.47;2.47;;;31.30;59.10;;;;;;6337952;22;20416;-79
2022/07/27 10:34:04;;;;;;;2.47;2.13;;;31.50;58.90;;;;;;6338385;22;20009;-80
2022/07/27 10:36:30;;;;;;;3.13;2.45;;;31.60;57.90;;;;;;6337539;22;20002;-79
2022/07/27 10:39:00;;;;;;;2.85;2.55;;;31.70;55.20;;;;;;6335487;22;20010;-78
2022/07/27 10:41:38;;;;;;;3.65;2.30;;;31.70;56.30;;;;;;6335943;22;19999;-79
2022/07/27 10:44:20;;;;;;;2.90;2.30;;;31.80;55.90;;;;;;6337021;22;19999;-79
2022/07/27 10:46:50;;;;;;;3.17;2.88;;;32.00;55.70;;;;;;6333034;22;20044;-79
2022/07/27 10:49:25;;;;;;;4.18;2.42;;;32.10;53.80;;;;;;6309440;22;19998;-79
2022/07/27 10:51:54;;;;;;;3.47;2.83;;;32.20;53.20;;;;;;6335171;22;20010;-80
2022/07/27 10:54:25;;;;;;;2.53;2.03;;;32.30;54.50;;;;;;6335250;22;20007;-80
2022/07/27 10:56:54;;;;;;;2.28;2.08;;;32.50;54.80;;;;;;6335954;22;20003;-79
2022/07/27 10:59:38;;;;;;;5.53;2.22;;;32.60;53.60;;;;;;6336824;22;20026;-78
2022/07/27 11:02:12;;;;;;;3.42;2.50;;;32.70;53.80;;;;;;6336915;22;20329;-79
2022/07/27 11:04:51;;;;;;;3.15;2.70;;;32.50;51.80;;;;;;6336359;22;20025;-79
2022/07/27 11:07:19;;;;;;;3.50;2.25;;;32.60;51.50;;;;;;6308697;22;20098;-79
2022/07/27 11:09:47;;;;;;;3.83;2.10;;;32.60;52.50;;;;;;6308552;22;20135;-79
2022/07/27 11:12:13;;;;;;;2.83;2.40;;;32.70;52.50;;;;;;6309540;22;20448;-79
2022/07/27 11:14:49;;;;;;;3.30;2.20;;;32.80;52.90;;;;;;6336210;22;20009;-79
2022/07/27 11:17:22;;;;;;;3.08;2.13;;;32.90;52.00;;;;;;6309817;22;20014;-79
2022/07/27 11:20:01;;;;;;;4.28;2.08;;;33.10;52.70;;;;;;6334387;22;20005;-79
2022/07/27 11:22:38;;;;;;;3.05;2.15;;;33.30;51.90;;;;;;6335606;22;20002;-79
2022/07/27 11:25:05;;;;;;;5.65;3.20;;;33.40;51.50;;;;;;6335694;22;20379;-79
2022/07/27 11:27:31;;;;;;;2.10;1.73;;;33.50;50.70;;;;;;6308295;22;20097;-79
2022/07/27 11:29:57;;;;;;;2.40;2.10;;;33.70;50.40;;;;;;6334327;22;20364;-79
2022/07/27 11:32:23;;;;;;;2.30;2.10;;;33.90;50.70;;;;;;6338005;22;20003;-79
2022/07/27 11:34:50;;;;;;;2.10;1.90;;;34.00;50.60;;;;;;6336189;22;20067;-79
2022/07/27 11:37:21;;;;;;;3.22;2.30;;;34.30;49.60;;;;;;6337603;22;20450;-79
2022/07/27 11:39:56;;;;;;;3.75;2.60;;;34.50;48.60;;;;;;6337498;22;19998;-79
2022/07/27 11:42:21;;;;;;;2.80;2.40;;;34.70;47.70;;;;;;6334596;22;20366;-79
2022/07/27 11:44:48;;;;;;;2.58;2.35;;;35.00;47.90;;;;;;6307123;22;20003;-80
2022/07/27 11:47:25;;;;;;;4.50;2.75;;;35.30;48.00;;;;;;6336775;22;20002;-74
2022/07/27 11:49:51;;;;;;;5.93;2.72;;;35.50;48.80;;;;;;6335399;22;20052;-83
2022/07/27 11:52:17;;;;;;;3.40;2.83;;;35.80;48.60;;;;;;6312569;22;20306;-81
2022/07/27 11:54:49;;;;;;;3.03;2.53;;;36.00;48.50;;;;;;6340670;22;20003;-74
2022/07/27 11:57:15;;;;;;;4.82;2.28;;;36.10;48.00;;;;;;6339714;22;20378;-80
2022/07/27 11:59:45;;;;;;;4.90;2.70;;;36.10;48.30;;;;;;6338734;22;20261;-73
2022/07/27 12:02:12;;;;;;;;;;;36.20;48.40;;;;;;6340039;22;20012;-79
2022/07/27 12:04:40;;;;;;;3.10;2.60;;;36.30;47.50;;;;;;6339988;22;19899;-78
2022/07/27 12:07:11;;;;;;;5.28;2.75;;;36.40;48.00;;;;;;6339144;22;19995;-79
2022/07/27 12:09:40;;;;;;;3.05;2.53;;;36.60;46.90;;;;;;6311170;22;20006;-78
2022/07/27 12:12:24;;;;;;;4.55;2.67;;;36.70;47.20;;;;;;6338033;22;19999;-79
2022/07/27 12:15:02;;;;;;;3.55;2.10;;;36.60;46.00;;;;;;6338439;22;20047;-73
2022/07/27 12:17:32;;;;;;;2.75;2.50;;;36.50;46.30;;;;;;6339046;22;19999;-73
2022/07/27 12:20:06;;;;;;;3.47;2.58;;;36.50;46.30;;;;;;6339773;22;20009;-73
2022/07/27 12:22:42;;;;;;;3.45;2.30;;;36.40;45.30;;;;;;6339840;22;20091;-73
2022/07/27 12:25:09;;;;;;;4.88;2.70;;;36.60;46.20;;;;;;6339405;22;20302;-73
2022/07/27 12:27:35;;;;;;;3.38;2.50;;;36.70;46.10;;;;;;6337877;22;19994;-74
2022/07/27 12:30:11;;;;;;;3.97;2.10;;;36.60;43.60;;;;;;6336756;22;20010;-74
2022/07/27 12:32:41;;;;;;;2.50;2.30;;;36.70;45.60;;;;;;6338911;22;20002;-73
2022/07/27 12:35:21;;;;;;;4.53;2.28;;;36.80;46.50;;;;;;6338393;22;19999;-73
2022/07/27 12:37:54;;;;;;;6.15;2.40;;;37.00;44.60;;;;;;6310154;22;20007;-81
2022/07/27 12:40:20;;;;;;;2.70;2.30;;;37.10;44.70;;;;;;6338812;22;20005;-81
2022/07/27 12:42:58;;;;;;;3.03;1.90;;;37.30;45.20;;;;;;6337941;22;20002;-81
2022/07/27 12:45:34;;;;;;;2.25;1.98;;;37.40;44.70;;;;;;6338632;22;20026;-81
2022/07/27 12:48:15;;;;;;;8.55;2.58;;;37.40;45.10;;;;;;6338575;22;20440;-81
2022/07/27 12:50:42;;;;;;;3.05;2.10;;;37.60;43.90;;;;;;6339704;22;19999;-80
2022/07/27 12:53:11;;;;;;;2.30;1.90;;;37.50;43.30;;;;;;6339346;22;20486;-80
2022/07/27 12:55:37;;;;;;;1.87;1.67;;;37.60;44.00;;;;;;6338750;22;20349;-81
2022/07/27 12:58:03;;;;;;;2.53;2.00;;;37.50;44.50;;;;;;6310735;22;20026;-79